createdAt,value
2018-11-05T00:00:16.944Z,62.10
2018-11-05T00:02:45.664Z,62.10
2018-11-05T00:05:13.997Z,62.30
2018-11-05T00:07:42.351Z,62.40
2018-11-05T00:10:10.726Z,62.40
2018-11-05T00:12:40.200Z,62.30
2018-11-05T00:15:08.907Z,62.40
2018-11-05T00:17:37.435Z,63.90
2018-11-05T00:20:07.202Z,62.80
2018-11-05T00:22:35.777Z,62.90
2018-11-05T00:25:04.636Z,63.80
2018-11-05T00:27:32.836Z,65.00
2018-11-05T00:30:01.070Z,65.30
2018-11-05T00:32:29.341Z,67.00
2018-11-05T00:34:57.696Z,66.70
2018-11-05T00:37:25.943Z,66.80
2018-11-05T00:39:54.175Z,67.60
2018-11-05T00:42:22.409Z,67.60
2018-11-05T00:44:50.608Z,68.20
2018-11-05T00:47:18.847Z,68.20
2018-11-05T00:49:47.046Z,68.50
2018-11-05T00:52:15.367Z,68.40
2018-11-05T00:54:43.632Z,68.50
2018-11-05T00:57:11.896Z,68.40
2018-11-05T00:59:40.091Z,67.50
2018-11-05T01:02:08.328Z,67.50
2018-11-05T01:04:36.546Z,66.80
2018-11-05T01:07:04.907Z,67.00
2018-11-05T01:09:33.124Z,67.20
2018-11-05T01:12:01.921Z,67.60
2018-11-05T01:14:30.192Z,67.70
2018-11-05T01:16:58.467Z,68.10
2018-11-05T01:19:26.663Z,67.70
2018-11-05T01:21:55.252Z,68.40
2018-11-05T01:24:23.538Z,68.80
2018-11-05T01:26:51.810Z,70.30
2018-11-05T01:29:20.273Z,69.80
2018-11-05T01:31:48.519Z,70.70
2018-11-05T01:34:16.776Z,68.40
2018-11-05T01:36:45.029Z,68.80
2018-11-05T01:39:13.220Z,68.60
2018-11-05T01:41:41.424Z,68.40
2018-11-05T01:44:09.890Z,67.90
2018-11-05T01:46:38.123Z,67.90
2018-11-05T01:49:06.323Z,67.30
2018-11-05T01:51:34.826Z,67.60
2018-11-05T01:54:03.240Z,67.10
2018-11-05T01:56:31.536Z,67.10
2018-11-05T01:59:00.177Z,67.10
2018-11-05T02:01:28.472Z,66.90
2018-11-05T02:03:56.637Z,67.10
2018-11-05T02:06:24.883Z,67.20
2018-11-05T02:08:53.125Z,67.10
2018-11-05T02:11:21.368Z,67.00
2018-11-05T02:13:49.590Z,66.90
2018-11-05T02:16:18.767Z,66.50
2018-11-05T02:18:47.041Z,66.90
2018-11-05T02:21:15.348Z,66.50
2018-11-05T02:23:43.847Z,66.70
2018-11-05T02:26:12.063Z,66.00
2018-11-05T02:28:40.417Z,65.20
2018-11-05T02:31:08.657Z,65.30
2018-11-05T02:33:37.177Z,64.40
2018-11-05T02:36:05.473Z,64.30
2018-11-05T02:38:33.689Z,64.60
2018-11-05T02:41:01.942Z,65.10
2018-11-05T02:43:30.199Z,65.10
2018-11-05T02:45:58.482Z,64.40
2018-11-05T02:48:26.693Z,64.50
2018-11-05T02:50:54.948Z,65.00
2018-11-05T02:53:23.233Z,65.10
2018-11-05T02:55:51.716Z,65.00
2018-11-05T02:58:19.955Z,65.40
2018-11-05T03:00:48.172Z,65.50
2018-11-05T03:03:16.410Z,65.70
2018-11-05T03:05:44.688Z,64.80
2018-11-05T03:08:12.931Z,64.60
2018-11-05T03:10:41.207Z,64.30
2018-11-05T03:13:10.539Z,63.80
2018-11-05T03:15:38.792Z,63.70
2018-11-05T03:18:07.025Z,65.10
2018-11-05T03:20:35.249Z,64.60
2018-11-05T03:23:03.467Z,66.00
2018-11-05T03:25:32.965Z,66.20
2018-11-05T03:28:01.479Z,66.90
2018-11-05T03:30:29.720Z,67.50
2018-11-05T03:32:57.940Z,67.50
2018-11-05T03:35:26.111Z,67.90
2018-11-05T03:37:54.362Z,67.90
2018-11-05T03:40:22.589Z,68.10
2018-11-05T03:42:50.765Z,67.90
2018-11-05T03:45:18.956Z,68.20
2018-11-05T03:47:47.194Z,69.10
2018-11-05T03:50:17.468Z,69.30
2018-11-05T03:52:46.152Z,69.40
2018-11-05T03:55:15.395Z,69.50
2018-11-05T03:57:43.679Z,69.50
2018-11-05T04:00:14.551Z,69.20
2018-11-05T04:02:42.754Z,68.80
2018-11-05T04:05:11.104Z,68.50
2018-11-05T04:07:39.864Z,69.00
2018-11-05T04:10:09.420Z,68.80
2018-11-05T04:12:37.674Z,69.00
2018-11-05T04:15:06.490Z,69.60
2018-11-05T04:17:34.728Z,69.40
2018-11-05T04:20:04.279Z,69.40
2018-11-05T04:22:32.496Z,70.40
2018-11-05T04:25:02.065Z,70.30
2018-11-05T04:27:30.265Z,69.80
2018-11-05T04:29:58.492Z,69.40
2018-11-05T04:32:26.692Z,68.90
2018-11-05T04:34:54.886Z,68.90
2018-11-05T04:37:23.458Z,69.00
2018-11-05T04:39:51.680Z,68.70
2018-11-05T04:42:19.925Z,68.40
2018-11-05T04:44:48.176Z,68.30
2018-11-05T04:47:16.380Z,67.50
2018-11-05T04:49:44.582Z,68.00
2018-11-05T04:52:12.835Z,68.30
2018-11-05T04:54:41.012Z,69.10
2018-11-05T04:57:09.207Z,70.70
2018-11-05T04:59:38.308Z,71.20
2018-11-05T05:02:07.336Z,70.80
2018-11-05T05:04:35.812Z,70.80
2018-11-05T05:07:03.996Z,70.50
2018-11-05T05:09:32.204Z,70.30
2018-11-05T05:12:00.428Z,70.00
2018-11-05T05:14:28.612Z,69.60
2018-11-05T05:16:56.840Z,70.10
2018-11-05T05:19:25.017Z,69.50
2018-11-05T05:21:53.287Z,69.10
2018-11-05T05:24:21.591Z,69.20
2018-11-05T05:26:49.804Z,69.60
2018-11-05T05:29:18.068Z,69.60
2018-11-05T05:31:46.327Z,69.30
2018-11-05T05:34:14.612Z,70.30
2018-11-05T05:36:42.850Z,68.90
2018-11-05T05:39:11.219Z,68.00
2018-11-05T05:41:39.843Z,67.50
2018-11-05T05:44:08.179Z,68.50
2018-11-05T05:46:36.391Z,68.40
2018-11-05T05:49:05.076Z,68.90
2018-11-05T05:51:33.296Z,69.00
2018-11-05T05:54:01.542Z,68.50
2018-11-05T05:56:29.761Z,67.70
2018-11-05T05:58:58.004Z,67.60
2018-11-05T06:01:26.280Z,67.60
2018-11-05T06:03:54.607Z,67.50
2018-11-05T06:06:22.923Z,68.10
2018-11-05T06:08:51.096Z,67.70
2018-11-05T06:11:19.295Z,67.70
2018-11-05T06:13:47.539Z,67.50
2018-11-05T06:16:15.731Z,67.50
2018-11-05T06:18:43.976Z,67.10
2018-11-05T06:21:12.568Z,67.40
2018-11-05T06:23:40.774Z,67.60
2018-11-05T06:26:09.013Z,67.80
2018-11-05T06:28:37.422Z,67.30
2018-11-05T06:31:05.922Z,66.40
2018-11-05T06:33:34.261Z,67.10
2018-11-05T06:36:02.564Z,68.70
2018-11-05T06:38:30.788Z,68.00
2018-11-05T06:40:59.008Z,67.70
2018-11-05T06:43:27.216Z,66.80
2018-11-05T06:45:55.439Z,66.50
2018-11-05T06:48:23.836Z,66.40
2018-11-05T06:50:52.072Z,66.50
2018-11-05T06:53:20.696Z,65.80
2018-11-05T06:55:48.915Z,65.00
2018-11-05T06:58:17.171Z,63.50
2018-11-05T07:00:45.489Z,64.00
2018-11-05T07:03:13.692Z,64.60
2018-11-05T07:05:42.036Z,64.90
2018-11-05T07:08:10.255Z,65.30
2018-11-05T07:10:38.488Z,65.50
2018-11-05T07:13:06.829Z,65.40
2018-11-05T07:15:35.087Z,65.40
2018-11-05T07:18:04.508Z,65.40
2018-11-05T07:20:32.719Z,65.70
2018-11-05T07:23:00.960Z,65.30
2018-11-05T07:25:29.192Z,65.20
2018-11-05T07:27:57.491Z,64.90
2018-11-05T07:30:25.763Z,64.80
2018-11-05T07:32:54.894Z,65.00
2018-11-05T07:35:23.182Z,65.00
2018-11-05T07:37:51.451Z,65.00
2018-11-05T07:40:19.970Z,63.60
2018-11-05T07:42:48.208Z,63.80
2018-11-05T07:45:19.824Z,63.70
2018-11-05T07:47:48.172Z,63.10
2018-11-05T07:50:17.471Z,62.60
2018-11-05T07:52:45.731Z,61.60
2018-11-05T07:55:15.238Z,61.60
2018-11-05T07:57:44.387Z,61.00
2018-11-05T08:00:20.480Z,61.20
2018-11-05T08:02:50.836Z,62.10
2018-11-05T08:05:20.063Z,62.30
2018-11-05T08:07:48.691Z,62.30
2018-11-05T08:10:17.031Z,62.20
2018-11-05T08:12:45.415Z,62.80
2018-11-05T08:15:17.497Z,63.10
2018-11-05T08:17:46.607Z,62.80
2018-11-05T08:20:14.895Z,62.60
2018-11-05T08:22:43.372Z,62.30
2018-11-05T08:25:12.344Z,60.60
2018-11-05T08:27:40.659Z,59.60
2018-11-05T08:30:13.569Z,58.60
2018-11-05T08:32:42.760Z,57.30
2018-11-05T08:35:11.814Z,55.70
2018-11-05T08:37:40.715Z,55.80
2018-11-05T08:40:13.333Z,53.20
2018-11-05T08:42:41.957Z,50.70
2018-11-05T08:45:11.081Z,50.70
2018-11-05T08:47:39.347Z,50.70
2018-11-05T08:50:10.341Z,50.80
2018-11-05T08:52:38.548Z,50.40
2018-11-05T08:55:10.218Z,50.80
2018-11-05T08:57:38.884Z,49.90
2018-11-05T09:00:16.281Z,48.90
2018-11-05T09:02:45.632Z,49.30
2018-11-05T09:05:14.352Z,50.30
2018-11-05T09:07:43.379Z,50.00
2018-11-05T09:10:11.895Z,50.50
2018-11-05T09:12:40.136Z,52.00
2018-11-05T09:15:11.235Z,52.30
2018-11-05T09:17:40.097Z,52.50
2018-11-05T09:20:10.324Z,52.20
2018-11-05T09:22:38.852Z,51.20
2018-11-05T09:25:08.163Z,51.30
2018-11-05T09:27:36.651Z,49.80
2018-11-05T09:30:08.224Z,48.40
2018-11-05T09:32:36.488Z,50.40
2018-11-05T09:35:05.432Z,52.60
2018-11-05T09:37:33.728Z,52.80
2018-11-05T09:40:02.522Z,52.50
2018-11-05T09:42:30.891Z,52.80
2018-11-05T09:44:59.193Z,52.70
2018-11-05T09:47:27.428Z,51.80
2018-11-05T09:49:55.728Z,50.70
2018-11-05T09:52:23.947Z,49.50
2018-11-05T09:54:52.263Z,48.00
2018-11-05T09:57:20.605Z,47.20
2018-11-05T09:59:48.791Z,47.40
2018-11-05T10:02:17.088Z,47.40
2018-11-05T10:04:45.654Z,47.40
2018-11-05T10:07:13.600Z,43.80
2018-11-05T10:09:41.965Z,42.40
2018-11-05T10:12:10.272Z,39.80
2018-11-05T10:14:38.520Z,37.70
2018-11-05T10:17:07.178Z,37.50
2018-11-05T10:19:35.415Z,37.10
2018-11-05T10:22:03.699Z,35.40
2018-11-05T10:24:32.032Z,32.60
2018-11-05T10:27:00.249Z,31.50
2018-11-05T10:29:28.622Z,30.80
2018-11-05T10:31:56.845Z,30.00
2018-11-05T10:34:27.166Z,30.60
2018-11-05T10:36:55.520Z,32.80
2018-11-05T10:39:23.844Z,33.10
2018-11-05T10:41:52.069Z,30.70
2018-11-05T10:44:20.358Z,31.70
2018-11-05T10:46:48.621Z,31.50
2018-11-05T10:49:16.845Z,28.60
2018-11-05T10:51:45.080Z,29.30
2018-11-05T10:54:13.524Z,30.80
2018-11-05T10:56:41.944Z,30.50
2018-11-05T10:59:10.185Z,31.30
2018-11-05T11:01:44.114Z,29.80
2018-11-05T11:04:17.884Z,28.20
2018-11-05T11:06:46.115Z,26.10
2018-11-05T11:09:14.475Z,22.40
2018-11-05T11:11:42.789Z,21.00
2018-11-05T11:14:11.025Z,22.40
2018-11-05T11:16:39.285Z,24.60
2018-11-05T11:19:07.529Z,27.60
2018-11-05T11:21:35.862Z,29.00
2018-11-05T11:24:04.336Z,30.70
2018-11-05T11:26:32.585Z,30.80
2018-11-05T11:29:00.962Z,30.80
2018-11-05T11:31:29.107Z,30.60
2018-11-05T11:33:57.413Z,31.00
2018-11-05T11:36:26.454Z,30.80
2018-11-05T11:38:54.789Z,30.60
2018-11-05T11:41:23.056Z,31.00
2018-11-05T11:43:51.324Z,32.40
2018-11-05T11:46:19.622Z,32.40
2018-11-05T11:48:47.904Z,32.80
2018-11-05T11:51:16.177Z,32.90
2018-11-05T11:53:44.368Z,32.60
2018-11-05T11:56:12.614Z,31.90
2018-11-05T11:58:40.857Z,30.90
2018-11-05T12:01:09.146Z,31.20
2018-11-05T12:03:37.340Z,30.00
2018-11-05T12:06:05.864Z,31.80
2018-11-05T12:08:34.129Z,30.00
2018-11-05T12:11:03.187Z,31.50
2018-11-05T12:13:31.425Z,30.00
2018-11-05T12:15:59.750Z,30.40
2018-11-05T12:18:28.275Z,31.30
2018-11-05T12:20:56.504Z,30.20
2018-11-05T12:23:24.705Z,29.70
2018-11-05T12:25:53.008Z,30.60
2018-11-05T12:28:21.302Z,31.20
2018-11-05T12:30:49.503Z,30.40
2018-11-05T12:33:17.793Z,31.20
2018-11-05T12:35:46.109Z,31.60
2018-11-05T12:38:14.368Z,33.10
2018-11-05T12:40:42.627Z,32.60
2018-11-05T12:43:10.836Z,32.90
2018-11-05T12:45:39.092Z,33.00
2018-11-05T12:48:07.351Z,32.80
2018-11-05T12:50:35.598Z,32.50
2018-11-05T12:53:03.884Z,33.10
2018-11-05T12:55:32.190Z,33.10
2018-11-05T12:58:00.430Z,33.80
2018-11-05T13:00:28.653Z,33.10
2018-11-05T13:02:58.124Z,33.20
2018-11-05T13:05:27.389Z,33.00
2018-11-05T13:07:55.664Z,33.00
2018-11-05T13:10:24.546Z,33.10
2018-11-05T13:12:52.992Z,34.00
2018-11-05T13:15:21.382Z,34.00
2018-11-05T13:17:49.599Z,33.60
2018-11-05T13:20:20.507Z,33.80
2018-11-05T13:22:49.011Z,33.80
2018-11-05T13:25:17.216Z,34.50
2018-11-05T13:27:46.888Z,33.40
2018-11-05T13:30:15.452Z,32.30
2018-11-05T13:32:44.217Z,32.90
2018-11-05T13:35:14.664Z,32.80
2018-11-05T13:37:43.360Z,33.00
2018-11-05T13:40:14.706Z,32.40
2018-11-05T13:42:43.514Z,33.30
2018-11-05T13:45:12.989Z,33.40
2018-11-05T13:47:42.116Z,33.60
2018-11-05T13:50:10.748Z,33.90
2018-11-05T13:52:39.306Z,34.90
2018-11-05T13:55:10.094Z,34.30
2018-11-05T13:57:39.886Z,34.80
2018-11-05T14:00:11.631Z,34.70
2018-11-05T14:02:40.232Z,34.80
2018-11-05T14:05:09.431Z,34.90
2018-11-05T14:07:37.764Z,34.80
2018-11-05T14:10:11.550Z,35.10
2018-11-05T14:12:39.885Z,35.40
2018-11-05T14:15:08.171Z,35.90
2018-11-05T14:17:36.404Z,34.80
2018-11-05T14:20:05.768Z,35.40
2018-11-05T14:22:34.112Z,33.40
2018-11-05T14:25:02.391Z,33.00
2018-11-05T14:27:31.121Z,33.40
2018-11-05T14:30:00.502Z,33.80
2018-11-05T14:32:28.172Z,34.80
2018-11-05T14:34:56.407Z,34.70
2018-11-05T14:37:24.626Z,34.70
2018-11-05T14:39:52.869Z,36.80
2018-11-05T14:42:21.140Z,36.20
2018-11-05T14:44:49.378Z,35.90
2018-11-05T14:47:17.649Z,35.80
2018-11-05T14:49:45.897Z,36.50
2018-11-05T14:52:14.136Z,36.80
2018-11-05T14:54:42.364Z,35.20
2018-11-05T14:57:10.717Z,35.20
2018-11-05T14:59:39.036Z,34.60
2018-11-05T15:02:12.915Z,34.40
2018-11-05T15:04:41.119Z,34.40
2018-11-05T15:07:09.339Z,34.40
2018-11-05T15:09:37.540Z,34.30
2018-11-05T15:12:05.837Z,34.20
2018-11-05T15:14:34.189Z,34.20
2018-11-05T15:17:02.740Z,34.20
2018-11-05T15:19:31.282Z,32.80
2018-11-05T15:21:59.313Z,33.00
2018-11-05T15:24:27.561Z,33.10
2018-11-05T15:26:55.992Z,33.50
2018-11-05T15:29:24.134Z,33.80
2018-11-05T15:31:52.489Z,35.30
2018-11-05T15:34:20.767Z,36.00
2018-11-05T15:36:49.024Z,37.00
2018-11-05T15:39:18.079Z,37.70
2018-11-05T15:41:46.354Z,37.80
2018-11-05T15:44:14.646Z,38.00
2018-11-05T15:46:43.293Z,38.70
2018-11-05T15:49:11.644Z,37.70
2018-11-05T15:51:40.189Z,37.50
2018-11-05T15:54:08.327Z,38.00
2018-11-05T15:56:36.627Z,37.60
2018-11-05T15:59:04.952Z,37.10
2018-11-05T16:01:33.277Z,37.00
2018-11-05T16:04:01.564Z,37.70
2018-11-05T16:06:29.851Z,38.00
2018-11-05T16:08:58.163Z,38.30
2018-11-05T16:11:26.480Z,38.60
2018-11-05T16:13:54.755Z,38.90
2018-11-05T16:16:23.068Z,40.80
2018-11-05T16:18:51.345Z,42.00
2018-11-05T16:21:19.774Z,44.60
2018-11-05T16:23:48.099Z,44.80
2018-11-05T16:26:16.636Z,45.10
2018-11-05T16:28:44.906Z,45.10
2018-11-05T16:31:13.316Z,44.50
2018-11-05T16:33:41.651Z,44.20
2018-11-05T16:36:09.910Z,44.80
2018-11-05T16:38:38.213Z,44.70
2018-11-05T16:41:06.515Z,44.90
2018-11-05T16:43:34.742Z,46.30
2018-11-05T16:46:03.294Z,45.30
2018-11-05T16:48:31.619Z,45.80
2018-11-05T16:50:59.952Z,46.00
2018-11-05T16:53:28.231Z,46.20
2018-11-05T16:55:56.522Z,47.10
2018-11-05T16:58:24.869Z,45.90
2018-11-05T17:00:53.256Z,45.90
2018-11-05T17:03:21.431Z,46.60
2018-11-05T17:05:49.669Z,46.90
2018-11-05T17:08:17.941Z,47.10
2018-11-05T17:10:46.760Z,48.10
2018-11-05T17:13:15.141Z,48.30
2018-11-05T17:15:43.423Z,49.20
2018-11-05T17:18:11.671Z,49.30
2018-11-05T17:20:39.945Z,49.50
2018-11-05T17:23:08.296Z,49.90
2018-11-05T17:25:36.563Z,50.80
2018-11-05T17:28:04.980Z,50.80
2018-11-05T17:30:33.236Z,51.10
2018-11-05T17:33:01.463Z,50.10
2018-11-05T17:35:29.754Z,49.20
2018-11-05T17:37:58.812Z,48.30
2018-11-05T17:40:27.078Z,48.30
2018-11-05T17:42:55.344Z,48.10
2018-11-05T17:45:23.696Z,48.70
2018-11-05T17:47:51.959Z,47.70
2018-11-05T17:50:21.261Z,47.70
2018-11-05T17:52:49.561Z,48.10
2018-11-05T17:55:17.988Z,47.70
2018-11-05T17:57:47.148Z,48.10
2018-11-05T18:00:16.906Z,48.80
2018-11-05T18:02:45.216Z,49.70
2018-11-05T18:05:13.931Z,49.60
2018-11-05T18:07:43.446Z,48.90
2018-11-05T18:10:11.892Z,48.50
2018-11-05T18:12:40.216Z,49.20
2018-11-05T18:15:10.423Z,48.50
2018-11-05T18:17:39.460Z,48.40
2018-11-05T18:20:10.977Z,49.70
2018-11-05T18:22:39.624Z,51.50
2018-11-05T18:25:10.420Z,52.20
2018-11-05T18:27:38.722Z,53.00
2018-11-05T18:30:08.867Z,52.30
2018-11-05T18:32:37.165Z,52.10
2018-11-05T18:35:07.528Z,52.70
2018-11-05T18:37:35.865Z,53.30
2018-11-05T18:40:06.994Z,53.00
2018-11-05T18:42:35.350Z,51.90
2018-11-05T18:45:03.979Z,50.40
2018-11-05T18:47:32.275Z,48.70
2018-11-05T18:50:00.808Z,49.20
2018-11-05T18:52:29.159Z,49.30
2018-11-05T18:54:57.546Z,49.80
2018-11-05T18:57:25.816Z,49.10
2018-11-05T18:59:54.103Z,49.70
2018-11-05T19:02:27.943Z,49.80
2018-11-05T19:04:56.249Z,49.50
2018-11-05T19:07:24.531Z,49.00
2018-11-05T19:09:52.859Z,49.40
2018-11-05T19:12:21.284Z,49.70
2018-11-05T19:14:49.535Z,50.60
2018-11-05T19:17:18.923Z,50.70
2018-11-05T19:19:47.969Z,51.60
2018-11-05T19:22:17.653Z,50.60
2018-11-05T19:24:46.050Z,50.10
2018-11-05T19:27:14.539Z,50.70
2018-11-05T19:29:42.841Z,51.60
2018-11-05T19:32:11.107Z,50.90
2018-11-05T19:34:39.360Z,51.80
2018-11-05T19:37:08.103Z,51.60
2018-11-05T19:39:36.421Z,50.80
2018-11-05T19:42:05.071Z,51.00
2018-11-05T19:44:33.297Z,51.50
2018-11-05T19:47:01.567Z,52.60
2018-11-05T19:49:29.795Z,52.80
2018-11-05T19:51:58.059Z,52.80
2018-11-05T19:54:26.340Z,52.90
2018-11-05T19:56:54.729Z,51.70
2018-11-05T19:59:23.031Z,53.10
2018-11-05T20:01:51.265Z,53.10
2018-11-05T20:04:20.557Z,53.90
2018-11-05T20:06:48.846Z,53.40
2018-11-05T20:09:17.949Z,53.40
2018-11-05T20:11:46.497Z,54.20
2018-11-05T20:14:14.787Z,53.60
2018-11-05T20:16:43.134Z,53.40
2018-11-05T20:19:11.869Z,53.60
2018-11-05T20:21:40.045Z,53.40
2018-11-05T20:24:08.397Z,54.30
2018-11-05T20:26:36.716Z,54.30
2018-11-05T20:29:05.415Z,53.50
2018-11-05T20:31:33.889Z,54.20
2018-11-05T20:34:02.279Z,54.00
2018-11-05T20:36:30.969Z,54.00
2018-11-05T20:38:59.535Z,54.00
2018-11-05T20:41:27.806Z,54.10
2018-11-05T20:43:56.031Z,54.60
2018-11-05T20:46:24.333Z,54.70
2018-11-05T20:48:52.679Z,54.30
2018-11-05T20:51:20.948Z,54.20
2018-11-05T20:53:49.291Z,54.60
2018-11-05T20:56:17.904Z,55.30
2018-11-05T20:58:46.234Z,55.00
2018-11-05T21:01:14.503Z,54.90
2018-11-05T21:03:42.768Z,55.30
2018-11-05T21:06:11.054Z,55.40
2018-11-05T21:08:39.429Z,55.10
2018-11-05T21:11:07.734Z,54.70
2018-11-05T21:13:35.983Z,54.20
2018-11-05T21:16:04.541Z,53.90
2018-11-05T21:18:32.800Z,54.60
2018-11-05T21:21:01.152Z,53.90
2018-11-05T21:23:29.377Z,54.00
2018-11-05T21:25:58.308Z,54.20
2018-11-05T21:28:26.921Z,55.40
2018-11-05T21:30:55.182Z,55.60
2018-11-05T21:33:23.433Z,54.60
2018-11-05T21:35:52.041Z,53.80
2018-11-05T21:38:20.313Z,54.80
2018-11-05T21:40:48.660Z,54.00
2018-11-05T21:43:16.877Z,53.40
2018-11-05T21:45:45.208Z,54.00
2018-11-05T21:48:13.444Z,52.90
2018-11-05T21:50:41.656Z,53.20
2018-11-05T21:53:09.976Z,52.70
2018-11-05T21:55:38.391Z,54.20
2018-11-05T21:58:06.651Z,53.50
2018-11-05T22:00:34.911Z,53.80
2018-11-05T22:03:04.202Z,53.70
2018-11-05T22:05:32.461Z,54.10
2018-11-05T22:08:00.796Z,54.00
2018-11-05T22:10:29.078Z,54.40
2018-11-05T22:12:57.434Z,54.40
2018-11-05T22:15:30.459Z,54.30
2018-11-05T22:17:58.887Z,54.70
2018-11-05T22:20:27.094Z,54.70
2018-11-05T22:22:55.330Z,55.30
2018-11-05T22:25:24.244Z,54.30
2018-11-05T22:27:52.462Z,54.90
2018-11-05T22:30:20.760Z,53.70
2018-11-05T22:32:48.997Z,55.70
2018-11-05T22:35:17.291Z,54.20
2018-11-05T22:37:45.563Z,54.10
2018-11-05T22:40:14.752Z,53.40
2018-11-05T22:42:43.019Z,53.00
2018-11-05T22:45:12.698Z,53.70
2018-11-05T22:47:41.256Z,53.40
2018-11-05T22:50:09.705Z,53.60
2018-11-05T22:52:38.775Z,54.20
2018-11-05T22:55:07.617Z,54.40
2018-11-05T22:57:35.879Z,54.10
2018-11-05T23:00:07.416Z,54.60
2018-11-05T23:02:36.075Z,54.60
2018-11-05T23:05:04.379Z,55.40
2018-11-05T23:07:32.579Z,54.90
2018-11-05T23:10:01.819Z,54.50
2018-11-05T23:12:30.730Z,54.80
2018-11-05T23:14:58.987Z,55.10
2018-11-05T23:17:27.209Z,55.30
2018-11-05T23:19:55.486Z,55.00
2018-11-05T23:22:23.755Z,55.00
2018-11-05T23:24:52.121Z,55.30
2018-11-05T23:27:20.667Z,55.60
2018-11-05T23:29:48.948Z,55.40
2018-11-05T23:32:17.165Z,55.00
2018-11-05T23:34:45.419Z,55.20
2018-11-05T23:37:13.625Z,54.60
2018-11-05T23:39:42.543Z,54.90
2018-11-05T23:42:10.768Z,55.70
2018-11-05T23:44:38.985Z,54.50
2018-11-05T23:47:07.206Z,54.00
2018-11-05T23:49:36.198Z,53.40
2018-11-05T23:52:04.474Z,53.80
2018-11-05T23:54:32.727Z,54.70
2018-11-05T23:57:00.955Z,53.50
2018-11-05T23:59:29.187Z,53.80
